RYR86GY EGPH-EIDW
Flight info
| Callsign | RYR86GY |
|---|---|
| Flight time | 0h 41m |
| Altitude | 24000 |
| Route | GOSAM P600 BLACA P620 NIMAT NIMAT3R |
| Aircraft | B738/M-SDE2E3FGHIRWXY/LB1 |
Departure
| Time | 2026-04-23 16:33 |
|---|---|
| Airport | Edinburgh Airport (EGPH) |
Arrival
| Time | 2026-04-23 17:15 |
|---|---|
| Airport | Dublin Airport (EIDW) |
| Time | Latitude | Longitude | Altitude | Speed | Heading |
|---|---|---|---|---|---|
| 2026-04-23 16:05 | 55.94662 | -3.36615 | 144 ft | 0 kts | 89° |
| 2026-04-23 16:25 | 55.94662 | -3.36621 | 144 ft | 2 kts | 89° |
| 2026-04-23 16:26 | 55.94662 | -3.36647 | 144 ft | 3 kts | 89° |
| 2026-04-23 16:26 | 55.94658 | -3.36680 | 144 ft | 3 kts | 66° |
| 2026-04-23 16:26 | 55.94647 | -3.36710 | 144 ft | 3 kts | 44° |
| 2026-04-23 16:26 | 55.94630 | -3.36731 | 144 ft | 3 kts | 23° |
| 2026-04-23 16:27 | 55.94612 | -3.36739 | 144 ft | 0 kts | 2° |
| 2026-04-23 16:29 | 55.94627 | -3.36738 | 144 ft | 4 kts | 2° |
| 2026-04-23 16:29 | 55.94662 | -3.36736 | 144 ft | 6 kts | 359° |
| 2026-04-23 16:29 | 55.94717 | -3.36737 | 144 ft | 9 kts | 359° |
| 2026-04-23 16:29 | 55.94791 | -3.36738 | 144 ft | 12 kts | 359° |
| 2026-04-23 16:30 | 55.94874 | -3.36776 | 144 ft | 13 kts | 329° |
| 2026-04-23 16:30 | 55.94928 | -3.36884 | 144 ft | 11 kts | 253° |
| 2026-04-23 16:30 | 55.94887 | -3.37020 | 144 ft | 14 kts | 239° |
| 2026-04-23 16:30 | 55.94830 | -3.37187 | 144 ft | 17 kts | 239° |
| 2026-04-23 16:31 | 55.94766 | -3.37377 | 144 ft | 19 kts | 239° |
| 2026-04-23 16:31 | 55.94695 | -3.37589 | 144 ft | 18 kts | 239° |
| 2026-04-23 16:31 | 55.94649 | -3.37727 | 144 ft | 11 kts | 239° |
| 2026-04-23 16:31 | 55.94610 | -3.37841 | 144 ft | 11 kts | 239° |
| 2026-04-23 16:32 | 55.94608 | -3.37955 | 144 ft | 9 kts | 314° |
| 2026-04-23 16:32 | 55.94660 | -3.38017 | 144 ft | 10 kts | 328° |
| 2026-04-23 16:32 | 55.94710 | -3.38068 | 144 ft | 2 kts | 355° |
| 2026-04-23 16:32 | 55.94734 | -3.38033 | 144 ft | 18 kts | 47° |
| 2026-04-23 16:33 | 55.94896 | -3.37561 | 144 ft | 74 kts | 59° |
| 2026-04-23 16:33 | 55.95266 | -3.36460 | 144 ft | 134 kts | 59° |
| 2026-04-23 16:33 | 55.95772 | -3.34947 | 666 ft | 143 kts | 59° |
| 2026-04-23 16:33 | 55.96317 | -3.33396 | 1326 ft | 154 kts | 52° |
| 2026-04-23 16:34 | 55.97138 | -3.32054 | 1978 ft | 167 kts | 41° |
| 2026-04-23 16:34 | 55.97752 | -3.31181 | 2434 ft | 173 kts | 39° |
| 2026-04-23 16:34 | 55.99057 | -3.29369 | 3352 ft | 185 kts | 39° |
| 2026-04-23 16:34 | 55.99816 | -3.28592 | 3789 ft | 193 kts | 23° |
| 2026-04-23 16:35 | 56.01607 | -3.28746 | 4701 ft | 202 kts | 337° |
| 2026-04-23 16:35 | 56.02374 | -3.29706 | 5155 ft | 205 kts | 314° |
| 2026-04-23 16:35 | 56.03054 | -3.31958 | 5851 ft | 209 kts | 282° |
| 2026-04-23 16:35 | 56.03063 | -3.34572 | 6559 ft | 216 kts | 261° |
| 2026-04-23 16:36 | 56.02787 | -3.37330 | 7222 ft | 233 kts | 256° |
| 2026-04-23 16:36 | 56.02414 | -3.40251 | 7869 ft | 252 kts | 255° |
| 2026-04-23 16:36 | 56.01979 | -3.43415 | 8517 ft | 271 kts | 254° |
| 2026-04-23 16:36 | 56.01499 | -3.46798 | 9161 ft | 289 kts | 254° |
| 2026-04-23 16:37 | 56.00986 | -3.50341 | 9792 ft | 307 kts | 254° |
| 2026-04-23 16:37 | 56.00429 | -3.54133 | 10431 ft | 323 kts | 254° |
| 2026-04-23 16:37 | 55.99844 | -3.58116 | 11068 ft | 337 kts | 255° |
| 2026-04-23 16:37 | 55.99247 | -3.62260 | 11702 ft | 351 kts | 255° |
| 2026-04-23 16:38 | 55.98627 | -3.66572 | 12337 ft | 362 kts | 255° |
| 2026-04-23 16:38 | 55.97997 | -3.70928 | 12959 ft | 372 kts | 255° |
| 2026-04-23 16:38 | 55.97335 | -3.75479 | 13593 ft | 380 kts | 255° |
| 2026-04-23 16:38 | 55.96663 | -3.80063 | 14218 ft | 387 kts | 255° |
| 2026-04-23 16:39 | 55.95970 | -3.84764 | 14849 ft | 397 kts | 255° |
| 2026-04-23 16:39 | 55.95023 | -3.89508 | 15482 ft | 413 kts | 244° |
| 2026-04-23 16:39 | 55.93538 | -3.93913 | 16125 ft | 422 kts | 235° |
| 2026-04-23 16:39 | 55.91714 | -3.98102 | 16772 ft | 427 kts | 230° |
| 2026-04-23 16:40 | 55.89747 | -4.02018 | 17401 ft | 430 kts | 227° |
| 2026-04-23 16:40 | 55.87643 | -4.05849 | 18036 ft | 432 kts | 225° |
| 2026-04-23 16:40 | 55.85475 | -4.09576 | 18669 ft | 433 kts | 223° |
| 2026-04-23 16:40 | 55.83254 | -4.13227 | 19310 ft | 433 kts | 222° |
| 2026-04-23 16:41 | 55.80958 | -4.16712 | 20016 ft | 432 kts | 219° |
| 2026-04-23 16:41 | 55.78633 | -4.20011 | 20725 ft | 432 kts | 218° |
| 2026-04-23 16:41 | 55.76241 | -4.23236 | 21405 ft | 431 kts | 217° |
| 2026-04-23 16:41 | 55.73816 | -4.26359 | 22048 ft | 430 kts | 216° |
| 2026-04-23 16:42 | 55.71372 | -4.29418 | 22678 ft | 428 kts | 215° |
| 2026-04-23 16:42 | 55.68925 | -4.32432 | 23305 ft | 426 kts | 215° |
| 2026-04-23 16:42 | 55.66512 | -4.35375 | 23925 ft | 424 kts | 215° |
| 2026-04-23 16:42 | 55.64067 | -4.38341 | 24393 ft | 426 kts | 215° |
| 2026-04-23 16:43 | 55.61617 | -4.41304 | 24484 ft | 427 kts | 215° |
| 2026-04-23 16:43 | 55.59196 | -4.44226 | 24485 ft | 425 kts | 214° |
| 2026-04-23 16:43 | 55.56767 | -4.47154 | 24476 ft | 423 kts | 214° |
| 2026-04-23 16:43 | 55.54337 | -4.50083 | 24470 ft | 421 kts | 214° |
| 2026-04-23 16:44 | 55.51914 | -4.53002 | 24468 ft | 420 kts | 214° |
| 2026-04-23 16:44 | 55.49499 | -4.55913 | 24467 ft | 419 kts | 214° |
| 2026-04-23 16:44 | 55.47099 | -4.58839 | 24467 ft | 418 kts | 215° |
| 2026-04-23 16:44 | 55.44740 | -4.61753 | 24467 ft | 418 kts | 215° |
| 2026-04-23 16:45 | 55.42343 | -4.64725 | 24467 ft | 418 kts | 215° |
| 2026-04-23 16:45 | 55.39973 | -4.67643 | 24467 ft | 417 kts | 215° |
| 2026-04-23 16:45 | 55.37595 | -4.70592 | 24467 ft | 417 kts | 215° |
| 2026-04-23 16:45 | 55.35222 | -4.73470 | 24467 ft | 417 kts | 213° |
| 2026-04-23 16:46 | 55.32774 | -4.76141 | 24468 ft | 417 kts | 211° |
| 2026-04-23 16:46 | 55.30244 | -4.78715 | 24467 ft | 417 kts | 210° |
| 2026-04-23 16:46 | 55.27709 | -4.81163 | 24467 ft | 416 kts | 208° |
| 2026-04-23 16:46 | 55.25142 | -4.83570 | 24466 ft | 416 kts | 208° |
| 2026-04-23 16:47 | 55.22603 | -4.85899 | 24466 ft | 416 kts | 207° |
| 2026-04-23 16:47 | 55.20005 | -4.88223 | 24466 ft | 416 kts | 207° |
| 2026-04-23 16:47 | 55.17435 | -4.90492 | 24466 ft | 416 kts | 207° |
| 2026-04-23 16:47 | 55.14868 | -4.92742 | 24465 ft | 416 kts | 207° |
| 2026-04-23 16:48 | 55.12264 | -4.95016 | 24465 ft | 416 kts | 206° |
| 2026-04-23 16:48 | 55.09669 | -4.97279 | 24465 ft | 416 kts | 206° |
| 2026-04-23 16:48 | 55.07100 | -4.99518 | 24465 ft | 416 kts | 206° |
| 2026-04-23 16:48 | 55.04504 | -5.01778 | 24464 ft | 416 kts | 206° |
| 2026-04-23 16:49 | 55.02782 | -5.03278 | 24464 ft | 416 kts | 206° |
| 2026-04-23 16:49 | 54.99337 | -5.06278 | 24464 ft | 416 kts | 206° |
| 2026-04-23 16:49 | 54.96758 | -5.08524 | 24464 ft | 416 kts | 206° |
| 2026-04-23 16:49 | 54.94162 | -5.10784 | 24464 ft | 416 kts | 206° |
| 2026-04-23 16:50 | 54.91492 | -5.12775 | 24465 ft | 416 kts | 200° |
| 2026-04-23 16:50 | 54.88750 | -5.14349 | 24475 ft | 416 kts | 197° |
| 2026-04-23 16:50 | 54.85965 | -5.15683 | 24479 ft | 416 kts | 194° |
| 2026-04-23 16:50 | 54.83144 | -5.16900 | 24476 ft | 416 kts | 193° |
| 2026-04-23 16:51 | 54.80360 | -5.18036 | 24468 ft | 416 kts | 193° |
| 2026-04-23 16:51 | 54.77532 | -5.19155 | 24464 ft | 416 kts | 193° |
| 2026-04-23 16:51 | 54.74692 | -5.20263 | 24463 ft | 416 kts | 193° |
| 2026-04-23 16:51 | 54.71855 | -5.21362 | 24462 ft | 416 kts | 192° |
| 2026-04-23 16:52 | 54.69031 | -5.22453 | 24462 ft | 416 kts | 192° |
| 2026-04-23 16:52 | 54.66203 | -5.23544 | 24462 ft | 416 kts | 192° |
| 2026-04-23 16:52 | 54.63410 | -5.24622 | 24462 ft | 416 kts | 192° |
| 2026-04-23 16:52 | 54.60573 | -5.25718 | 24461 ft | 416 kts | 192° |
| 2026-04-23 16:53 | 54.57738 | -5.26814 | 24459 ft | 416 kts | 192° |
| 2026-04-23 16:53 | 54.54928 | -5.27908 | 24458 ft | 416 kts | 193° |
| 2026-04-23 16:53 | 54.52130 | -5.29332 | 24459 ft | 417 kts | 198° |
| 2026-04-23 16:53 | 54.49437 | -5.31069 | 24460 ft | 417 kts | 201° |
| 2026-04-23 16:54 | 54.46759 | -5.32997 | 24459 ft | 417 kts | 203° |
| 2026-04-23 16:54 | 54.44102 | -5.35013 | 24444 ft | 417 kts | 204° |
| 2026-04-23 16:54 | 54.41430 | -5.37093 | 23967 ft | 423 kts | 204° |
| 2026-04-23 16:54 | 54.38782 | -5.39187 | 23518 ft | 422 kts | 204° |
| 2026-04-23 16:55 | 54.36112 | -5.41318 | 23086 ft | 420 kts | 204° |
| 2026-04-23 16:55 | 54.33450 | -5.43452 | 22657 ft | 420 kts | 204° |
| 2026-04-23 16:55 | 54.30811 | -5.45584 | 22232 ft | 420 kts | 205° |
| 2026-04-23 16:55 | 54.28209 | -5.47724 | 21811 ft | 420 kts | 205° |
| 2026-04-23 16:56 | 54.25562 | -5.49924 | 21383 ft | 420 kts | 205° |
| 2026-04-23 16:56 | 54.22951 | -5.52109 | 20961 ft | 421 kts | 205° |
| 2026-04-23 16:56 | 54.20320 | -5.54317 | 20535 ft | 421 kts | 205° |
| 2026-04-23 16:56 | 54.17674 | -5.56511 | 20109 ft | 422 kts | 205° |
| 2026-04-23 16:57 | 54.15017 | -5.58710 | 19683 ft | 423 kts | 205° |
| 2026-04-23 16:57 | 54.12398 | -5.60894 | 19261 ft | 424 kts | 205° |
| 2026-04-23 16:57 | 54.09742 | -5.63112 | 18834 ft | 425 kts | 205° |
| 2026-04-23 16:57 | 54.07087 | -5.65330 | 18408 ft | 425 kts | 205° |
| 2026-04-23 16:58 | 54.04416 | -5.67560 | 17980 ft | 426 kts | 205° |
| 2026-04-23 16:58 | 54.01746 | -5.69761 | 17554 ft | 427 kts | 204° |
| 2026-04-23 16:58 | 53.98967 | -5.71387 | 17138 ft | 427 kts | 194° |
| 2026-04-23 16:58 | 53.96054 | -5.72442 | 16721 ft | 428 kts | 189° |
| 2026-04-23 16:59 | 53.93097 | -5.73162 | 16300 ft | 428 kts | 186° |
| 2026-04-23 16:59 | 53.90129 | -5.73683 | 15877 ft | 429 kts | 185° |
| 2026-04-23 16:59 | 53.87150 | -5.74083 | 15451 ft | 429 kts | 184° |
| 2026-04-23 16:59 | 53.84201 | -5.74418 | 15029 ft | 429 kts | 183° |
| 2026-04-23 17:00 | 53.81213 | -5.74725 | 14603 ft | 430 kts | 183° |
| 2026-04-23 17:00 | 53.78222 | -5.75017 | 14174 ft | 430 kts | 182° |
| 2026-04-23 17:00 | 53.75229 | -5.75302 | 13747 ft | 430 kts | 182° |
| 2026-04-23 17:00 | 53.72226 | -5.75587 | 13318 ft | 431 kts | 182° |
| 2026-04-23 17:01 | 53.69264 | -5.76094 | 12886 ft | 432 kts | 190° |
| 2026-04-23 17:01 | 53.66432 | -5.77824 | 12464 ft | 436 kts | 206° |
| 2026-04-23 17:01 | 53.63959 | -5.80826 | 12045 ft | 440 kts | 221° |
| 2026-04-23 17:01 | 53.62045 | -5.84875 | 11627 ft | 445 kts | 236° |
| 2026-04-23 17:02 | 53.61122 | -5.87973 | 11359 ft | 448 kts | 244° |
| 2026-04-23 17:02 | 53.59888 | -5.94644 | 10810 ft | 451 kts | 255° |
| 2026-04-23 17:02 | 53.59343 | -5.99816 | 10395 ft | 435 kts | 259° |
| 2026-04-23 17:02 | 53.59068 | -6.04618 | 9990 ft | 391 kts | 263° |
| 2026-04-23 17:03 | 53.58894 | -6.08997 | 9565 ft | 359 kts | 261° |
| 2026-04-23 17:03 | 53.58644 | -6.12982 | 9142 ft | 334 kts | 259° |
| 2026-04-23 17:03 | 53.58357 | -6.16756 | 8712 ft | 315 kts | 258° |
| 2026-04-23 17:03 | 53.58083 | -6.20337 | 8316 ft | 299 kts | 258° |
| 2026-04-23 17:04 | 53.57836 | -6.23708 | 8065 ft | 282 kts | 258° |
| 2026-04-23 17:04 | 53.57599 | -6.26854 | 7806 ft | 267 kts | 258° |
| 2026-04-23 17:04 | 53.57367 | -6.29899 | 7554 ft | 257 kts | 257° |
| 2026-04-23 17:04 | 53.57141 | -6.32858 | 7293 ft | 251 kts | 257° |
| 2026-04-23 17:05 | 53.56922 | -6.35725 | 7047 ft | 248 kts | 257° |
| 2026-04-23 17:05 | 53.56692 | -6.38604 | 6817 ft | 246 kts | 257° |
| 2026-04-23 17:05 | 53.56452 | -6.41447 | 6616 ft | 245 kts | 256° |
| 2026-04-23 17:05 | 53.56210 | -6.44281 | 6415 ft | 244 kts | 256° |
| 2026-04-23 17:06 | 53.55971 | -6.47114 | 6213 ft | 244 kts | 256° |
| 2026-04-23 17:06 | 53.55736 | -6.49905 | 6015 ft | 243 kts | 256° |
| 2026-04-23 17:06 | 53.55497 | -6.52742 | 5816 ft | 243 kts | 256° |
| 2026-04-23 17:06 | 53.55260 | -6.55524 | 5619 ft | 243 kts | 256° |
| 2026-04-23 17:07 | 53.55018 | -6.58322 | 5410 ft | 237 kts | 256° |
| 2026-04-23 17:07 | 53.54778 | -6.61029 | 5163 ft | 230 kts | 256° |
| 2026-04-23 17:07 | 53.54318 | -6.63504 | 4887 ft | 217 kts | 234° |
| 2026-04-23 17:07 | 53.53271 | -6.65153 | 4642 ft | 200 kts | 203° |
| 2026-04-23 17:08 | 53.51998 | -6.65872 | 4491 ft | 185 kts | 189° |
| 2026-04-23 17:08 | 53.50769 | -6.66279 | 4301 ft | 179 kts | 186° |
| 2026-04-23 17:08 | 53.49549 | -6.66627 | 4098 ft | 177 kts | 185° |
| 2026-04-23 17:08 | 53.48335 | -6.66963 | 3900 ft | 176 kts | 185° |
| 2026-04-23 17:09 | 53.47117 | -6.67290 | 3695 ft | 176 kts | 183° |
| 2026-04-23 17:09 | 53.45961 | -6.66982 | 3465 ft | 170 kts | 152° |
| 2026-04-23 17:09 | 53.45118 | -6.65605 | 3311 ft | 171 kts | 127° |
| 2026-04-23 17:09 | 53.44560 | -6.63823 | 3176 ft | 172 kts | 114° |
| 2026-04-23 17:10 | 53.44207 | -6.61893 | 3050 ft | 173 kts | 106° |
| 2026-04-23 17:10 | 53.43982 | -6.59938 | 2946 ft | 172 kts | 102° |
| 2026-04-23 17:10 | 53.43822 | -6.57942 | 2856 ft | 172 kts | 99° |
| 2026-04-23 17:10 | 53.43697 | -6.55982 | 2754 ft | 170 kts | 98° |
| 2026-04-23 17:11 | 53.43584 | -6.53984 | 2652 ft | 171 kts | 98° |
| 2026-04-23 17:11 | 53.43477 | -6.52010 | 2559 ft | 171 kts | 97° |
| 2026-04-23 17:11 | 53.43370 | -6.50002 | 2457 ft | 172 kts | 97° |
| 2026-04-23 17:11 | 53.43263 | -6.48009 | 2358 ft | 171 kts | 97° |
| 2026-04-23 17:12 | 53.43161 | -6.46085 | 2274 ft | 156 kts | 97° |
| 2026-04-23 17:12 | 53.43075 | -6.44419 | 2141 ft | 135 kts | 97° |
| 2026-04-23 17:12 | 53.42991 | -6.42862 | 1985 ft | 133 kts | 97° |
| 2026-04-23 17:12 | 53.42908 | -6.41319 | 1820 ft | 132 kts | 97° |
| 2026-04-23 17:13 | 53.42823 | -6.39763 | 1581 ft | 134 kts | 96° |
| 2026-04-23 17:13 | 53.42739 | -6.38231 | 1367 ft | 131 kts | 95° |
| 2026-04-23 17:13 | 53.42658 | -6.36707 | 1184 ft | 130 kts | 95° |
| 2026-04-23 17:13 | 53.42579 | -6.35195 | 1006 ft | 130 kts | 95° |
| 2026-04-23 17:14 | 53.42499 | -6.33687 | 831 ft | 130 kts | 95° |
| 2026-04-23 17:14 | 53.42419 | -6.32199 | 656 ft | 130 kts | 95° |
| 2026-04-23 17:14 | 53.42338 | -6.30694 | 486 ft | 129 kts | 95° |
| 2026-04-23 17:14 | 53.42256 | -6.29193 | 317 ft | 129 kts | 95° |
| 2026-04-23 17:15 | 53.42179 | -6.27756 | 251 ft | 105 kts | 95° |
| 2026-04-23 17:15 | 53.42132 | -6.26894 | 251 ft | 48 kts | 95° |
| 2026-04-23 17:15 | 53.42106 | -6.26427 | 251 ft | 33 kts | 94° |
| 2026-04-23 17:15 | 53.42163 | -6.26150 | 251 ft | 20 kts | 47° |
| 2026-04-23 17:16 | 53.42237 | -6.26023 | 251 ft | 11 kts | 45° |
| 2026-04-23 17:16 | 53.42281 | -6.25947 | 251 ft | 8 kts | 46° |
| 2026-04-23 17:16 | 53.42321 | -6.25879 | 251 ft | 9 kts | 46° |
| 2026-04-23 17:16 | 53.42370 | -6.25794 | 251 ft | 11 kts | 45° |
| 2026-04-23 17:17 | 53.42432 | -6.25688 | 251 ft | 14 kts | 45° |
| 2026-04-23 17:17 | 53.42506 | -6.25562 | 251 ft | 17 kts | 45° |
| 2026-04-23 17:17 | 53.42563 | -6.25466 | 251 ft | 18 kts | 45° |
| 2026-04-23 17:17 | 53.42648 | -6.25321 | 251 ft | 4 kts | 45° |
| 2026-04-23 17:18 | 53.42692 | -6.25245 | 251 ft | 7 kts | 45° |
| 2026-04-23 17:18 | 53.42733 | -6.25175 | 251 ft | 10 kts | 45° |
| 2026-04-23 17:18 | 53.42788 | -6.25082 | 251 ft | 12 kts | 44° |
| 2026-04-23 17:19 | 53.42860 | -6.24987 | 251 ft | 14 kts | 47° |
| 2026-04-23 17:19 | 53.42900 | -6.24912 | 251 ft | 9 kts | 47° |
| 2026-04-23 17:19 | 53.42951 | -6.24913 | 251 ft | 8 kts | 300° |
| 2026-04-23 17:19 | 53.42983 | -6.24948 | 251 ft | 5 kts | 3° |
| 2026-04-23 17:20 | 53.43007 | -6.24945 | 251 ft | 3 kts | 5° |
| 2026-04-23 17:20 | 53.43010 | -6.24944 | 251 ft | 0 kts | 5° |